createdAt,value
2023-02-20T00:00:37.807Z,49.77
2023-02-20T00:01:39.574Z,49.86
2023-02-20T00:02:41.383Z,50.07
2023-02-20T00:03:43.237Z,49.83
2023-02-20T00:04:47.199Z,50.00
2023-02-20T00:05:48.996Z,50.19
2023-02-20T00:06:51.185Z,50.20
2023-02-20T00:07:53.027Z,50.19
2023-02-20T00:08:55.128Z,50.36
2023-02-20T00:09:56.968Z,50.56
2023-02-20T00:10:58.851Z,50.41
2023-02-20T00:12:00.647Z,50.33
2023-02-20T00:13:02.496Z,50.43
2023-02-20T00:14:04.352Z,50.72
2023-02-20T00:15:06.812Z,50.85
2023-02-20T00:16:09.036Z,50.54
2023-02-20T00:17:11.022Z,50.70
2023-02-20T00:18:13.070Z,50.96
2023-02-20T00:19:15.846Z,50.95
2023-02-20T00:20:22.241Z,51.03
2023-02-20T00:21:24.357Z,50.66
2023-02-20T00:22:26.771Z,50.73
2023-02-20T00:23:28.590Z,51.04
2023-02-20T00:24:30.485Z,50.92
2023-02-20T00:25:32.359Z,51.07
2023-02-20T00:26:34.798Z,51.02
2023-02-20T00:27:36.642Z,50.59
2023-02-20T00:28:41.072Z,50.49
2023-02-20T00:29:45.338Z,50.44
2023-02-20T00:30:47.236Z,50.49
2023-02-20T00:31:53.749Z,50.24
2023-02-20T00:32:57.025Z,50.15
2023-02-20T00:33:58.832Z,50.14
2023-02-20T00:35:00.676Z,50.01
2023-02-20T00:36:02.470Z,49.81
2023-02-20T00:37:04.821Z,49.78
2023-02-20T00:38:06.775Z,49.58
2023-02-20T00:39:08.878Z,49.51
2023-02-20T00:40:11.748Z,49.33
2023-02-20T00:41:15.535Z,49.35
2023-02-20T00:42:17.424Z,49.38
2023-02-20T00:43:19.304Z,49.51
2023-02-20T00:44:21.054Z,49.35
2023-02-20T00:45:22.822Z,49.24
2023-02-20T00:46:24.734Z,49.23
2023-02-20T00:47:26.702Z,49.47
2023-02-20T00:48:28.841Z,49.04
2023-02-20T00:49:30.635Z,48.83
2023-02-20T00:50:32.872Z,49.20
2023-02-20T00:51:36.171Z,49.05
2023-02-20T00:52:39.574Z,49.11
2023-02-20T00:53:41.371Z,48.86
2023-02-20T00:54:43.211Z,48.33
2023-02-20T00:55:45.319Z,48.36
2023-02-20T00:56:47.484Z,48.13
2023-02-20T00:57:49.364Z,47.72
2023-02-20T00:58:52.816Z,48.11
2023-02-20T00:59:54.818Z,48.62
2023-02-20T01:00:56.676Z,48.44
2023-02-20T01:01:58.801Z,48.52
2023-02-20T01:03:00.819Z,48.59
2023-02-20T01:04:02.937Z,48.56
2023-02-20T01:05:05.066Z,48.79
2023-02-20T01:06:07.013Z,49.30
2023-02-20T01:07:09.357Z,49.16
2023-02-20T01:08:11.204Z,49.30
2023-02-20T01:09:13.363Z,49.21
2023-02-20T01:10:15.758Z,49.56
2023-02-20T01:11:17.849Z,49.93
2023-02-20T01:12:19.650Z,49.93
2023-02-20T01:13:21.709Z,49.76
2023-02-20T01:14:23.613Z,50.17
2023-02-20T01:15:25.477Z,50.06
2023-02-20T01:16:27.796Z,50.03
2023-02-20T01:17:29.918Z,50.14
2023-02-20T01:18:31.867Z,49.96
2023-02-20T01:19:33.720Z,50.40
2023-02-20T01:20:35.478Z,50.36
2023-02-20T01:21:37.806Z,50.05
2023-02-20T01:22:39.644Z,49.87
2023-02-20T01:23:41.422Z,50.27
2023-02-20T01:24:43.597Z,49.77
2023-02-20T01:25:45.434Z,48.97
2023-02-20T01:26:48.815Z,49.34
2023-02-20T01:27:50.733Z,50.81
2023-02-20T01:28:52.577Z,49.82
2023-02-20T01:29:54.644Z,49.68
2023-02-20T01:30:56.532Z,49.79
2023-02-20T01:31:58.758Z,49.96
2023-02-20T01:33:00.709Z,49.91
2023-02-20T01:34:02.987Z,50.28
2023-02-20T01:35:04.930Z,49.38
2023-02-20T01:36:07.271Z,48.29
2023-02-20T01:37:13.739Z,48.52
2023-02-20T01:38:15.726Z,47.96
2023-02-20T01:39:22.792Z,48.14
2023-02-20T01:40:25.042Z,48.34
2023-02-20T01:41:26.861Z,49.61
2023-02-20T01:42:30.949Z,47.92
2023-02-20T01:43:32.828Z,48.47
2023-02-20T01:44:37.217Z,47.63
2023-02-20T01:45:40.210Z,47.45
2023-02-20T01:46:49.298Z,47.63
2023-02-20T01:47:56.962Z,48.13
2023-02-20T01:49:06.173Z,47.79
2023-02-20T01:50:08.441Z,47.66
2023-02-20T01:51:12.593Z,47.96
2023-02-20T01:52:27.341Z,48.78
2023-02-20T01:53:30.787Z,47.43
2023-02-20T01:54:34.120Z,48.21
2023-02-20T01:55:42.703Z,48.91
2023-02-20T01:56:47.069Z,48.18
2023-02-20T01:57:52.723Z,46.65
2023-02-20T01:58:55.284Z,46.58
2023-02-20T02:00:02.781Z,46.57
2023-02-20T02:01:07.630Z,46.46
2023-02-20T02:02:10.879Z,46.42
2023-02-20T02:03:16.182Z,46.65
2023-02-20T02:04:18.111Z,46.14
2023-02-20T02:05:20.057Z,45.98
2023-02-20T02:06:22.116Z,45.97
2023-02-20T02:07:24.565Z,46.26
2023-02-20T02:08:28.931Z,46.44
2023-02-20T02:09:53.159Z,46.47
2023-02-20T02:11:02.211Z,46.49
2023-02-20T02:12:04.156Z,46.68
2023-02-20T02:13:07.321Z,46.63
2023-02-20T02:14:09.188Z,46.29
2023-02-20T02:15:16.407Z,46.35
2023-02-20T02:16:27.165Z,46.39
2023-02-20T02:18:03.075Z,46.31
2023-02-20T02:19:19.541Z,47.03
2023-02-20T02:20:45.268Z,46.27
2023-02-20T02:22:38.155Z,46.82
2023-02-20T02:23:42.669Z,46.42
2023-02-20T02:25:12.821Z,46.23
2023-02-20T02:26:44.356Z,45.97
2023-02-20T02:28:43.532Z,46.03
2023-02-20T02:30:15.170Z,46.21
2023-02-20T02:31:42.873Z,46.39
2023-02-20T02:32:56.630Z,47.20
2023-02-20T02:34:20.016Z,45.88
2023-02-20T02:36:00.653Z,45.97
2023-02-20T02:37:19.158Z,45.83
2023-02-20T02:38:26.358Z,46.63
2023-02-20T02:39:36.020Z,45.89
2023-02-20T02:40:53.197Z,45.41
2023-02-20T02:42:36.548Z,46.05
2023-02-20T02:43:54.275Z,46.04
2023-02-20T02:45:37.302Z,46.09
2023-02-20T02:46:59.731Z,46.31
2023-02-20T02:48:09.398Z,47.02
2023-02-20T02:49:29.282Z,46.57
2023-02-20T02:50:36.784Z,46.49
2023-02-20T02:51:44.046Z,46.40
2023-02-20T02:52:48.679Z,46.69
2023-02-20T02:54:10.871Z,46.91
2023-02-20T02:55:15.092Z,47.05
2023-02-20T02:56:22.590Z,47.09
2023-02-20T02:57:26.381Z,47.14
2023-02-20T02:58:28.614Z,47.38
2023-02-20T02:59:32.903Z,46.96
2023-02-20T03:00:42.569Z,47.14
2023-02-20T03:01:50.178Z,47.31
2023-02-20T03:03:18.353Z,47.13
2023-02-20T03:04:23.506Z,47.50
2023-02-20T03:05:40.309Z,47.07
2023-02-20T03:06:45.418Z,47.15
2023-02-20T03:07:52.983Z,47.09
2023-02-20T03:09:17.766Z,47.01
2023-02-20T03:10:31.816Z,47.31
2023-02-20T03:11:35.239Z,47.04
2023-02-20T03:12:43.237Z,46.98
2023-02-20T03:14:11.713Z,46.53
2023-02-20T03:15:33.413Z,46.38
2023-02-20T03:16:43.204Z,46.29
2023-02-20T03:18:12.705Z,46.41
2023-02-20T03:19:18.559Z,46.37
2023-02-20T03:20:22.680Z,46.43
2023-02-20T03:21:26.096Z,46.38
2023-02-20T03:22:36.186Z,46.37
2023-02-20T03:23:42.797Z,46.62
2023-02-20T03:24:55.548Z,46.64
2023-02-20T03:26:06.790Z,46.66
2023-02-20T03:27:08.845Z,46.87
2023-02-20T03:28:19.285Z,46.89
2023-02-20T03:29:30.229Z,47.05
2023-02-20T03:30:48.685Z,47.24
2023-02-20T03:32:41.280Z,47.35
2023-02-20T03:34:11.296Z,47.64
2023-02-20T03:35:32.930Z,47.69
2023-02-20T03:37:04.125Z,48.03
2023-02-20T03:38:26.246Z,48.31
2023-02-20T03:39:53.028Z,48.56
2023-02-20T03:41:16.186Z,48.64
2023-02-20T03:42:39.395Z,48.90
2023-02-20T03:43:45.145Z,49.11
2023-02-20T03:44:47.339Z,49.18
2023-02-20T03:45:50.880Z,49.30
2023-02-20T03:46:55.744Z,49.48
2023-02-20T03:48:02.168Z,49.54
2023-02-20T03:49:14.171Z,49.78
2023-02-20T03:50:34.776Z,49.86
2023-02-20T03:51:55.159Z,50.09
2023-02-20T03:52:57.214Z,50.25
2023-02-20T03:54:00.176Z,50.32
2023-02-20T03:55:02.557Z,50.43
2023-02-20T03:56:09.421Z,50.55
2023-02-20T03:57:20.153Z,50.61
2023-02-20T03:58:24.858Z,50.81
2023-02-20T03:59:31.054Z,50.93
2023-02-20T04:00:37.162Z,51.05
2023-02-20T04:01:42.039Z,51.07
2023-02-20T04:02:47.908Z,51.16
2023-02-20T04:03:51.327Z,51.20
2023-02-20T04:04:56.202Z,51.42
2023-02-20T04:05:59.799Z,51.49
2023-02-20T04:07:06.879Z,51.77
2023-02-20T04:08:12.709Z,51.92
2023-02-20T04:09:19.486Z,51.87
2023-02-20T04:10:27.000Z,52.02
2023-02-20T04:11:37.462Z,52.10
2023-02-20T04:12:43.882Z,52.43
2023-02-20T04:13:48.323Z,52.52
2023-02-20T04:14:51.839Z,52.61
2023-02-20T04:15:57.052Z,52.71
2023-02-20T04:17:03.158Z,52.91
2023-02-20T04:18:10.208Z,53.06
2023-02-20T04:19:12.238Z,53.26
2023-02-20T04:20:14.733Z,53.62
2023-02-20T04:21:23.651Z,53.82
2023-02-20T04:22:29.303Z,53.82
2023-02-20T04:23:36.757Z,53.97
2023-02-20T04:25:03.413Z,54.13
2023-02-20T04:26:13.933Z,54.30
2023-02-20T04:27:16.484Z,54.48
2023-02-20T04:28:18.670Z,54.61
2023-02-20T04:29:20.760Z,54.64
2023-02-20T04:30:23.426Z,54.82
2023-02-20T04:31:26.717Z,54.91
2023-02-20T04:32:28.693Z,54.98
2023-02-20T04:33:30.866Z,55.10
2023-02-20T04:34:32.955Z,55.17
2023-02-20T04:35:34.734Z,55.21
2023-02-20T04:36:36.568Z,55.18
2023-02-20T04:37:38.337Z,55.21
2023-02-20T04:38:40.220Z,55.19
2023-02-20T04:39:42.265Z,55.35
2023-02-20T04:40:44.136Z,55.41
2023-02-20T04:41:45.923Z,55.40
2023-02-20T04:42:47.716Z,55.58
2023-02-20T04:43:49.582Z,55.52
2023-02-20T04:44:51.426Z,55.57
2023-02-20T04:45:53.289Z,55.63
2023-02-20T04:46:55.148Z,55.54
2023-02-20T04:47:56.987Z,55.62
2023-02-20T04:48:58.778Z,55.61
2023-02-20T04:50:00.860Z,55.75
2023-02-20T04:51:03.226Z,55.73
2023-02-20T04:52:05.071Z,55.67
2023-02-20T04:53:07.615Z,55.62
2023-02-20T04:54:09.440Z,55.83
2023-02-20T04:55:11.332Z,55.58
2023-02-20T04:56:14.601Z,55.65
2023-02-20T04:57:17.589Z,55.58
2023-02-20T04:58:19.914Z,55.46
2023-02-20T04:59:21.871Z,55.28
2023-02-20T05:00:25.220Z,55.32
2023-02-20T05:01:27.162Z,55.22
2023-02-20T05:02:28.919Z,55.19
2023-02-20T05:03:30.719Z,55.13
2023-02-20T05:04:32.517Z,55.04
2023-02-20T05:05:34.367Z,55.00
2023-02-20T05:06:41.916Z,54.97
2023-02-20T05:07:43.911Z,54.88
2023-02-20T05:08:45.989Z,55.02
2023-02-20T05:09:47.794Z,54.94
2023-02-20T05:10:49.606Z,54.85
2023-02-20T05:11:52.289Z,54.88
2023-02-20T05:12:54.448Z,54.81
2023-02-20T05:13:56.298Z,54.91
2023-02-20T05:14:58.138Z,54.95
2023-02-20T05:15:59.987Z,54.94
2023-02-20T05:17:01.952Z,55.00
2023-02-20T05:18:05.253Z,55.06
2023-02-20T05:19:08.424Z,55.17
2023-02-20T05:20:11.710Z,55.16
2023-02-20T05:21:33.325Z,55.09
2023-02-20T05:22:35.184Z,55.09
2023-02-20T05:23:37.054Z,55.11
2023-02-20T05:24:38.833Z,55.20
2023-02-20T05:25:40.833Z,55.28
2023-02-20T05:26:43.026Z,55.10
2023-02-20T05:27:45.256Z,55.06
2023-02-20T05:28:53.769Z,55.18
2023-02-20T05:29:57.940Z,55.14
2023-02-20T05:30:59.858Z,55.27
2023-02-20T05:32:01.878Z,55.25
2023-02-20T05:33:03.633Z,55.31
2023-02-20T05:34:05.505Z,55.35
2023-02-20T05:35:07.462Z,55.43
2023-02-20T05:36:09.476Z,55.46
2023-02-20T05:37:13.586Z,55.44
2023-02-20T05:38:18.737Z,55.45
2023-02-20T05:39:21.100Z,55.47
2023-02-20T05:40:22.944Z,55.64
2023-02-20T05:41:24.955Z,55.68
2023-02-20T05:42:26.904Z,55.59
2023-02-20T05:43:28.715Z,55.77
2023-02-20T05:44:30.543Z,55.84
2023-02-20T05:45:32.418Z,55.83
2023-02-20T05:46:40.728Z,55.87
2023-02-20T05:47:42.867Z,55.71
2023-02-20T05:48:48.940Z,55.75
2023-02-20T05:49:51.305Z,55.90
2023-02-20T05:50:54.118Z,55.86
2023-02-20T05:51:56.968Z,55.68
2023-02-20T05:52:58.839Z,55.85
2023-02-20T05:54:00.701Z,55.94
2023-02-20T05:55:02.765Z,55.97
2023-02-20T05:56:04.693Z,56.05
2023-02-20T05:57:07.819Z,55.89
2023-02-20T05:58:09.719Z,55.92
2023-02-20T05:59:12.133Z,55.95
2023-02-20T06:00:14.493Z,55.93
2023-02-20T06:01:28.104Z,55.88
2023-02-20T06:02:34.117Z,56.10
2023-02-20T06:03:38.087Z,56.00
2023-02-20T06:04:40.375Z,55.79
2023-02-20T06:05:42.525Z,56.09
2023-02-20T06:06:45.082Z,56.18
2023-02-20T06:07:47.373Z,56.02
2023-02-20T06:08:49.368Z,55.66
2023-02-20T06:09:51.135Z,55.71
2023-02-20T06:10:53.001Z,55.90
2023-02-20T06:11:56.565Z,55.85
2023-02-20T06:12:58.682Z,55.65
2023-02-20T06:14:00.827Z,55.70
2023-02-20T06:15:02.700Z,55.58
2023-02-20T06:16:04.936Z,55.47
2023-02-20T06:17:06.857Z,55.53
2023-02-20T06:18:08.662Z,55.68
2023-02-20T06:19:10.600Z,55.60
2023-02-20T06:20:12.429Z,55.37
2023-02-20T06:21:14.525Z,55.21
2023-02-20T06:22:17.387Z,55.42
2023-02-20T06:23:19.325Z,55.51
2023-02-20T06:24:21.879Z,55.34
2023-02-20T06:25:23.726Z,55.23
2023-02-20T06:26:25.632Z,55.32
2023-02-20T06:27:27.751Z,55.37
2023-02-20T06:28:29.718Z,55.28
2023-02-20T06:29:31.619Z,55.29
2023-02-20T06:30:33.759Z,55.02
2023-02-20T06:31:36.081Z,55.25
2023-02-20T06:32:38.029Z,55.22
2023-02-20T06:33:39.882Z,54.73
2023-02-20T06:34:41.654Z,54.98
2023-02-20T06:35:43.401Z,54.75
2023-02-20T06:36:45.502Z,54.77
2023-02-20T06:37:47.453Z,55.00
2023-02-20T06:38:49.342Z,55.15
2023-02-20T06:39:51.181Z,54.95
2023-02-20T06:40:52.982Z,54.98
2023-02-20T06:41:55.326Z,54.70
2023-02-20T06:42:57.120Z,54.75
2023-02-20T06:43:58.881Z,54.93
2023-02-20T06:45:00.682Z,54.55
2023-02-20T06:46:02.572Z,54.44
2023-02-20T06:47:08.903Z,54.46
2023-02-20T06:48:11.421Z,54.59
2023-02-20T06:49:14.099Z,54.47
2023-02-20T06:50:16.156Z,54.66
2023-02-20T06:51:29.382Z,54.86
2023-02-20T06:52:31.297Z,54.67
2023-02-20T06:53:38.159Z,54.73
2023-02-20T06:54:40.384Z,54.37
2023-02-20T06:55:42.308Z,54.47
2023-02-20T06:56:44.294Z,54.50
2023-02-20T06:57:46.321Z,54.23
2023-02-20T06:58:49.949Z,54.32
2023-02-20T06:59:51.787Z,54.42
2023-02-20T07:00:53.733Z,54.53
2023-02-20T07:01:55.570Z,54.65
2023-02-20T07:02:57.610Z,54.64
2023-02-20T07:04:00.475Z,54.51
2023-02-20T07:05:04.708Z,54.60
2023-02-20T07:06:07.006Z,54.85
2023-02-20T07:07:08.835Z,54.78
2023-02-20T07:08:11.026Z,54.38
2023-02-20T07:09:13.842Z,54.09
2023-02-20T07:10:16.440Z,54.20
2023-02-20T07:11:20.887Z,54.35
2023-02-20T07:12:22.970Z,54.79
2023-02-20T07:13:24.840Z,54.46
2023-02-20T07:14:26.789Z,54.19
2023-02-20T07:15:28.616Z,54.01
2023-02-20T07:16:31.381Z,54.01
2023-02-20T07:17:33.221Z,54.10
2023-02-20T07:18:35.315Z,54.20
2023-02-20T07:19:37.290Z,54.10
2023-02-20T07:20:39.252Z,54.12
2023-02-20T07:21:41.123Z,54.12
2023-02-20T07:22:50.487Z,54.10
2023-02-20T07:23:53.484Z,54.02
2023-02-20T07:24:56.010Z,54.10
2023-02-20T07:25:58.196Z,53.96
2023-02-20T07:27:00.243Z,54.21
2023-02-20T07:28:02.118Z,54.40
2023-02-20T07:29:04.522Z,54.42
2023-02-20T07:30:06.749Z,54.40
2023-02-20T07:31:08.759Z,54.12
2023-02-20T07:32:10.684Z,53.99
2023-02-20T07:33:12.530Z,53.99
2023-02-20T07:34:14.656Z,54.01
2023-02-20T07:35:16.544Z,53.97
2023-02-20T07:36:18.697Z,53.96
2023-02-20T07:37:20.592Z,54.05
2023-02-20T07:38:24.500Z,54.12
2023-02-20T07:39:27.391Z,53.93
2023-02-20T07:40:29.546Z,54.03
2023-02-20T07:41:37.418Z,53.81
2023-02-20T07:42:39.470Z,53.36
2023-02-20T07:43:41.312Z,53.46
2023-02-20T07:44:48.888Z,53.48
2023-02-20T07:45:50.845Z,53.35
2023-02-20T07:46:52.772Z,53.27
2023-02-20T07:47:54.677Z,53.41
2023-02-20T07:48:56.567Z,53.85
2023-02-20T07:49:58.480Z,54.44
2023-02-20T07:51:00.845Z,54.04
2023-02-20T07:52:02.995Z,53.71
2023-02-20T07:53:04.962Z,53.03
2023-02-20T07:54:06.838Z,53.12
2023-02-20T07:55:08.876Z,53.29
2023-02-20T07:56:11.181Z,53.35
2023-02-20T07:57:15.520Z,54.59
2023-02-20T07:58:17.398Z,54.32
2023-02-20T07:59:19.454Z,53.36
2023-02-20T08:00:21.854Z,53.94
2023-02-20T08:01:23.914Z,53.83
2023-02-20T08:02:25.755Z,53.32
2023-02-20T08:03:27.605Z,53.10
2023-02-20T08:04:29.393Z,52.98
2023-02-20T08:05:40.208Z,53.47
2023-02-20T08:06:45.667Z,53.07
2023-02-20T08:07:48.624Z,53.01
2023-02-20T08:08:51.818Z,53.18
2023-02-20T08:09:53.621Z,53.07
2023-02-20T08:11:03.661Z,53.20
2023-02-20T08:12:10.325Z,53.26
2023-02-20T08:13:12.234Z,52.98
2023-02-20T08:14:14.862Z,52.56
2023-02-20T08:15:18.966Z,52.83
2023-02-20T08:16:21.860Z,52.85
2023-02-20T08:17:25.141Z,52.70
2023-02-20T08:18:28.341Z,52.94
2023-02-20T08:19:30.643Z,53.21
2023-02-20T08:20:32.535Z,53.24
2023-02-20T08:21:34.331Z,53.04
2023-02-20T08:22:41.428Z,53.01
2023-02-20T08:23:43.598Z,53.46
2023-02-20T08:24:45.504Z,53.70
2023-02-20T08:25:47.632Z,54.36
2023-02-20T08:26:49.548Z,54.53
2023-02-20T08:27:51.881Z,54.87
2023-02-20T08:28:54.137Z,54.54
2023-02-20T08:29:56.184Z,55.05
2023-02-20T08:30:58.061Z,54.86
2023-02-20T08:32:00.073Z,55.74
2023-02-20T08:33:02.485Z,55.53
2023-02-20T08:34:04.306Z,55.47
2023-02-20T08:35:06.658Z,55.29
2023-02-20T08:36:08.997Z,55.46
2023-02-20T08:37:11.513Z,55.32
2023-02-20T08:38:28.876Z,55.18
2023-02-20T08:39:30.754Z,54.66
2023-02-20T08:40:33.461Z,55.01
2023-02-20T08:41:35.342Z,55.44
2023-02-20T08:42:37.255Z,55.05
2023-02-20T08:43:40.331Z,54.56
2023-02-20T08:44:42.263Z,54.71
2023-02-20T08:45:44.090Z,54.71
2023-02-20T08:46:47.789Z,54.52
2023-02-20T08:47:50.541Z,54.25
2023-02-20T08:48:52.480Z,54.43
2023-02-20T08:49:54.295Z,54.59
2023-02-20T08:50:56.165Z,54.26
2023-02-20T08:51:58.369Z,54.68
2023-02-20T08:53:00.256Z,54.51
2023-02-20T08:54:04.333Z,54.53
2023-02-20T08:55:06.265Z,54.41
2023-02-20T08:56:09.608Z,54.45
2023-02-20T08:57:11.478Z,54.87
2023-02-20T08:58:13.542Z,54.59
2023-02-20T08:59:15.437Z,53.90
2023-02-20T09:00:19.125Z,53.36
2023-02-20T09:01:41.281Z,53.80
2023-02-20T09:02:43.365Z,53.43
2023-02-20T09:03:45.302Z,53.44
2023-02-20T09:04:48.383Z,53.65
2023-02-20T09:05:50.656Z,53.65
2023-02-20T09:06:52.599Z,53.61
2023-02-20T09:07:54.492Z,54.09
2023-02-20T09:08:56.346Z,53.48
2023-02-20T09:09:58.707Z,53.57
2023-02-20T09:11:00.966Z,53.41
2023-02-20T09:12:02.966Z,53.35
2023-02-20T09:13:05.068Z,53.13
2023-02-20T09:14:06.888Z,52.39
2023-02-20T09:15:09.936Z,52.29
2023-02-20T09:16:14.040Z,52.78
2023-02-20T09:17:16.926Z,52.76
2023-02-20T09:18:18.939Z,52.85
2023-02-20T09:19:21.634Z,53.08
2023-02-20T09:20:23.960Z,52.79
2023-02-20T09:21:27.997Z,52.73
2023-02-20T09:22:33.140Z,52.88
2023-02-20T09:23:35.032Z,53.34
2023-02-20T09:24:37.007Z,52.90
2023-02-20T09:25:38.885Z,53.07
2023-02-20T09:26:40.860Z,52.84
2023-02-20T09:27:42.695Z,53.15
2023-02-20T09:28:44.744Z,53.58
2023-02-20T09:29:47.238Z,53.54
2023-02-20T09:30:49.854Z,53.13
2023-02-20T09:31:52.082Z,53.50
2023-02-20T09:32:54.616Z,53.74
2023-02-20T09:33:56.482Z,53.33
2023-02-20T09:34:58.727Z,53.40
2023-02-20T09:36:00.588Z,53.65
2023-02-20T09:37:02.474Z,53.63
2023-02-20T09:38:06.951Z,53.21
2023-02-20T09:39:08.804Z,53.17
2023-02-20T09:40:12.074Z,53.32
2023-02-20T09:41:41.611Z,53.65
2023-02-20T09:42:51.335Z,53.00
2023-02-20T09:44:23.538Z,52.89
2023-02-20T09:45:29.598Z,52.90
2023-02-20T09:46:31.695Z,53.40
2023-02-20T09:47:42.729Z,53.47
2023-02-20T09:49:25.061Z,53.66
2023-02-20T09:50:46.079Z,53.44
2023-02-20T09:51:55.981Z,53.42
2023-02-20T09:53:28.067Z,52.85
2023-02-20T09:54:39.830Z,53.35
2023-02-20T09:55:41.866Z,53.62
2023-02-20T09:56:53.678Z,54.02
2023-02-20T09:57:56.275Z,53.70
2023-02-20T09:59:06.017Z,53.72
2023-02-20T10:00:20.668Z,54.09
2023-02-20T10:01:23.893Z,53.86
2023-02-20T10:02:33.802Z,53.69
2023-02-20T10:03:37.518Z,54.06
2023-02-20T10:04:55.406Z,54.37
2023-02-20T10:06:08.935Z,54.51
2023-02-20T10:07:32.733Z,54.77
2023-02-20T10:08:34.715Z,55.13
2023-02-20T10:09:37.258Z,55.13
2023-02-20T10:10:42.186Z,54.98
2023-02-20T10:11:49.332Z,55.33
2023-02-20T10:13:03.215Z,55.46
2023-02-20T10:14:20.162Z,55.81
2023-02-20T10:15:24.780Z,56.01
2023-02-20T10:16:36.045Z,55.83
2023-02-20T10:17:44.898Z,55.52
2023-02-20T10:19:11.215Z,55.97
2023-02-20T10:20:46.496Z,55.26
2023-02-20T10:22:33.175Z,55.22
2023-02-20T10:24:04.918Z,55.63
2023-02-20T10:25:35.587Z,55.65
2023-02-20T10:26:43.766Z,55.40
2023-02-20T10:28:04.975Z,55.13
2023-02-20T10:29:27.830Z,54.80
2023-02-20T10:30:40.824Z,54.71
2023-02-20T10:31:46.372Z,54.85
2023-02-20T10:32:56.133Z,54.84
2023-02-20T10:34:11.348Z,54.69
2023-02-20T10:35:21.064Z,54.71
2023-02-20T10:36:26.904Z,54.99
2023-02-20T10:37:46.674Z,54.97
2023-02-20T10:38:54.587Z,54.81
2023-02-20T10:40:04.685Z,54.76
2023-02-20T10:41:13.709Z,54.83
2023-02-20T10:42:31.010Z,55.26
2023-02-20T10:43:38.253Z,55.67
2023-02-20T10:44:54.493Z,55.37
2023-02-20T10:46:05.763Z,55.60
2023-02-20T10:47:26.495Z,55.51
2023-02-20T10:48:32.071Z,55.70
2023-02-20T10:49:39.163Z,55.85
2023-02-20T10:50:53.627Z,55.60
2023-02-20T10:52:01.017Z,56.06
2023-02-20T10:53:26.847Z,55.28
2023-02-20T10:54:34.549Z,54.82
2023-02-20T10:56:08.637Z,54.95
2023-02-20T10:57:21.097Z,54.74
2023-02-20T10:59:03.895Z,54.95
2023-02-20T11:00:23.495Z,55.15
2023-02-20T11:01:26.990Z,55.32
2023-02-20T11:02:34.130Z,55.78
2023-02-20T11:03:55.808Z,56.12
2023-02-20T11:05:04.029Z,55.15
2023-02-20T11:06:09.171Z,54.81
2023-02-20T11:07:15.323Z,54.77
2023-02-20T11:08:21.019Z,54.68
2023-02-20T11:09:23.480Z,54.54
2023-02-20T11:10:25.620Z,54.52
2023-02-20T11:11:35.227Z,54.62
2023-02-20T11:12:42.195Z,53.88
2023-02-20T11:13:44.319Z,53.77
2023-02-20T11:14:49.476Z,54.29
2023-02-20T11:15:54.460Z,54.34
2023-02-20T11:17:12.453Z,54.23
2023-02-20T11:18:21.481Z,54.22
2023-02-20T11:19:29.093Z,53.87
2023-02-20T11:20:35.266Z,53.71
2023-02-20T11:21:40.957Z,54.11
2023-02-20T11:22:49.216Z,53.86
2023-02-20T11:23:51.074Z,53.43
2023-02-20T11:24:52.899Z,53.15
2023-02-20T11:25:54.767Z,53.60
2023-02-20T11:27:04.062Z,53.45
2023-02-20T11:28:20.637Z,54.47
2023-02-20T11:29:24.071Z,54.29
2023-02-20T11:30:31.190Z,54.26
2023-02-20T11:31:34.830Z,53.86
2023-02-20T11:32:38.833Z,54.20
2023-02-20T11:33:47.349Z,53.70
2023-02-20T11:35:03.508Z,54.18
2023-02-20T11:36:14.552Z,53.55
2023-02-20T11:37:17.353Z,53.14
2023-02-20T11:38:22.479Z,53.51
2023-02-20T11:39:27.648Z,53.15
2023-02-20T11:40:33.010Z,53.44
2023-02-20T11:41:36.947Z,53.72
2023-02-20T11:42:38.849Z,53.65
2023-02-20T11:44:00.598Z,53.48
2023-02-20T11:45:31.604Z,53.42
2023-02-20T11:46:33.580Z,53.62
2023-02-20T11:47:35.877Z,53.81
2023-02-20T11:48:40.495Z,53.98
2023-02-20T11:49:42.636Z,53.66
2023-02-20T11:50:48.287Z,53.71
2023-02-20T11:51:50.728Z,53.23
2023-02-20T11:53:26.120Z,52.69
2023-02-20T11:54:32.330Z,52.51
2023-02-20T11:55:35.268Z,52.39
2023-02-20T11:56:37.225Z,52.40
2023-02-20T11:57:44.270Z,52.38
2023-02-20T11:58:47.467Z,52.68
2023-02-20T11:59:50.762Z,52.59
2023-02-20T12:00:54.889Z,51.98
2023-02-20T12:02:20.420Z,51.65
2023-02-20T12:03:22.569Z,51.63
2023-02-20T12:04:25.318Z,51.99
2023-02-20T12:05:48.079Z,52.40
2023-02-20T12:06:50.159Z,52.71
2023-02-20T12:07:51.947Z,52.90
2023-02-20T12:08:56.643Z,52.40
2023-02-20T12:10:16.521Z,51.66
2023-02-20T12:11:22.632Z,51.84
2023-02-20T12:12:28.699Z,51.76
2023-02-20T12:13:34.373Z,51.53
2023-02-20T12:14:36.657Z,51.85
2023-02-20T12:15:38.626Z,51.74
2023-02-20T12:16:49.629Z,51.35
2023-02-20T12:18:30.253Z,51.49
2023-02-20T12:19:45.614Z,51.45
2023-02-20T12:21:17.104Z,51.59
2023-02-20T12:22:34.789Z,51.24
2023-02-20T12:23:43.966Z,51.12
2023-02-20T12:25:04.350Z,51.27
2023-02-20T12:26:09.136Z,51.08
2023-02-20T12:27:32.504Z,51.06
2023-02-20T12:28:47.555Z,51.51
2023-02-20T12:29:52.369Z,51.45
2023-02-20T12:31:21.169Z,52.15
2023-02-20T12:32:42.846Z,52.10
2023-02-20T12:34:04.856Z,51.69
2023-02-20T12:35:09.413Z,51.74
2023-02-20T12:36:32.255Z,51.94
2023-02-20T12:37:36.984Z,51.82
2023-02-20T12:38:50.601Z,51.15
2023-02-20T12:39:57.987Z,50.98
2023-02-20T12:41:26.687Z,50.19
2023-02-20T12:42:34.285Z,49.94
2023-02-20T12:44:02.151Z,49.53
2023-02-20T12:45:13.928Z,49.73
2023-02-20T12:46:25.281Z,49.82
2023-02-20T12:47:36.232Z,49.40
2023-02-20T12:48:47.165Z,48.96
2023-02-20T12:50:07.583Z,49.41
2023-02-20T12:51:34.494Z,48.96
2023-02-20T12:52:51.056Z,48.83
2023-02-20T12:54:23.777Z,49.12
2023-02-20T12:55:52.945Z,48.88
2023-02-20T12:57:19.184Z,48.93
2023-02-20T12:58:28.116Z,48.52
2023-02-20T13:00:00.341Z,48.84
2023-02-20T13:01:09.649Z,48.04
2023-02-20T13:02:42.240Z,47.49
2023-02-20T13:03:56.990Z,47.02
2023-02-20T13:05:01.136Z,47.23
2023-02-20T13:06:03.740Z,47.18
2023-02-20T13:07:18.649Z,47.14
2023-02-20T13:08:34.084Z,47.46
2023-02-20T13:09:41.289Z,47.31
2023-02-20T13:10:56.536Z,46.86
2023-02-20T13:12:04.948Z,46.60
2023-02-20T13:13:11.239Z,46.91
2023-02-20T13:14:13.013Z,47.48
2023-02-20T13:15:39.174Z,47.48
2023-02-20T13:16:50.694Z,47.66
2023-02-20T13:17:57.919Z,47.92
2023-02-20T13:18:59.865Z,48.12
2023-02-20T13:20:11.387Z,47.94
2023-02-20T13:21:18.720Z,48.00
2023-02-20T13:22:20.990Z,47.25
2023-02-20T13:23:22.758Z,47.22
2023-02-20T13:24:29.756Z,47.10
2023-02-20T13:25:35.429Z,46.87
2023-02-20T13:26:40.141Z,46.87
2023-02-20T13:27:42.356Z,46.94
2023-02-20T13:28:45.757Z,46.71
2023-02-20T13:29:59.915Z,46.49
2023-02-20T13:31:14.382Z,46.54
2023-02-20T13:32:19.019Z,46.91
2023-02-20T13:33:25.601Z,47.12
2023-02-20T13:34:34.519Z,47.26
2023-02-20T13:35:42.407Z,47.25
2023-02-20T13:36:45.078Z,47.20
2023-02-20T13:37:56.256Z,47.16
2023-02-20T13:39:21.599Z,47.25
2023-02-20T13:40:26.405Z,47.32
2023-02-20T13:41:54.467Z,47.66
2023-02-20T13:43:27.115Z,47.31
2023-02-20T13:44:31.590Z,47.59
2023-02-20T13:45:44.157Z,47.27
2023-02-20T13:46:55.989Z,46.86
2023-02-20T13:48:18.293Z,46.79
2023-02-20T13:49:45.683Z,46.60
2023-02-20T13:50:47.577Z,46.38
2023-02-20T13:51:49.849Z,46.69
2023-02-20T13:52:56.996Z,46.71
2023-02-20T13:54:23.745Z,46.59
2023-02-20T13:55:26.994Z,46.77
2023-02-20T13:57:07.006Z,46.49
2023-02-20T13:58:15.048Z,46.44
2023-02-20T13:59:21.154Z,46.23
2023-02-20T14:00:34.957Z,45.87
2023-02-20T14:01:55.396Z,46.17
2023-02-20T14:02:57.757Z,46.25
2023-02-20T14:04:06.417Z,46.24
2023-02-20T14:05:17.747Z,45.72
2023-02-20T14:06:21.925Z,45.97
2023-02-20T14:07:38.166Z,46.07
2023-02-20T14:08:48.254Z,46.38
2023-02-20T14:10:03.676Z,46.85
2023-02-20T14:11:12.336Z,46.93
2023-02-20T14:12:14.383Z,47.10
2023-02-20T14:13:34.138Z,47.21
2023-02-20T14:14:45.503Z,47.19
2023-02-20T14:15:50.109Z,47.52
2023-02-20T14:16:52.190Z,47.48
2023-02-20T14:17:54.972Z,47.67
2023-02-20T14:19:03.192Z,47.63
2023-02-20T14:20:14.461Z,47.51
2023-02-20T14:21:19.424Z,47.79
2023-02-20T14:22:21.308Z,47.54
2023-02-20T14:23:28.889Z,47.51
2023-02-20T14:24:30.737Z,47.44
2023-02-20T14:25:32.635Z,47.71